Search for airport 
image banner adimage banner ad
image banner ad

LEOLOC - Olocau

Located in , Spain

ICAO - , IATA -

Data provided by Airmate  

General information

Coordinates: N39°40'31" W0°32'56"
Elevation is 680 feet MSL.
 
Rated:
View ratings: [VIEW]


View others Airports in Valencia

Operational data

Open for public use
Current time UTC:
Current local time:
Weather at : LEBT - Valencia/Betera ( 9 km )
METAR: LEBT 061900Z AUTO 11005KT 070V140 CAVOK 25/14 Q1004
View NOTAMs / SUP AIP / TFR affecting this airport [VIEW]
Communications frequencies: [VIEW]

Runways:

RWY identifierQFULength (ft)Width (ft)SurfaceLDA (ft)
1521330GRAS
3321330GRAS

Airport contact information

Satellite view of LEOLOC